Time;durP1;ratioP1;P1;durP2;ratioP2;P2;SDS_P1;SDS_P2;PMS_P1;PMS_P2;Temp;Humidity;BMP_temperature;BMP_pressure;BME280_temperature;BME280_humidity;BME280_pressure;Samples;Min_cycle;Max_cycle;Signal;HPM_P1;HPM_P2
2023/03/03 00:02:21;;;;;;;5.93;3.85;;;25.10;51.50;;;;;;5030913;28;20269;-59
2023/03/03 00:04:52;;;;;;;5.25;3.30;;;25.10;51.40;;;;;;5031072;28;20224;-58
2023/03/03 00:07:24;;;;;;;4.63;3.20;;;25.20;51.50;;;;;;5031222;28;20203;-60
2023/03/03 00:09:55;;;;;;;4.57;3.13;;;25.20;51.40;;;;;;5031297;28;20621;-58
2023/03/03 00:12:28;;;;;;;5.28;3.10;;;25.20;51.50;;;;;;5031949;28;20253;-58
2023/03/03 00:14:59;;;;;;;5.93;3.40;;;25.20;51.50;;;;;;5031100;28;20200;-58
2023/03/03 00:17:31;;;;;;;7.18;3.33;;;25.30;51.50;;;;;;5031144;28;20286;-60
2023/03/03 00:20:04;;;;;;;5.07;3.45;;;25.30;51.50;;;;;;5041501;28;20246;-58
2023/03/03 00:22:39;;;;;;;4.30;3.13;;;25.30;51.50;;;;;;5051071;28;20203;-60
2023/03/03 00:25:30;;;;;;;4.00;3.10;;;25.30;51.40;;;;;;5048566;28;20226;-58
2023/03/03 00:28:08;;;;;;;3.38;3.00;;;25.40;51.50;;;;;;5044272;28;20208;-60
2023/03/03 00:30:38;;;;;;;3.58;2.80;;;25.40;51.50;;;;;;5035176;28;20199;-56
2023/03/03 00:33:21;;;;;;;4.75;3.47;;;25.40;51.50;;;;;;5034542;28;20263;-61
2023/03/03 00:35:52;;;;;;;5.15;3.25;;;25.40;51.50;;;;;;5034167;28;20208;-56
2023/03/03 00:38:24;;;;;;;5.40;3.03;;;25.40;51.50;;;;;;5034271;28;20200;-59
2023/03/03 00:40:55;;;;;;;3.95;3.03;;;25.50;51.50;;;;;;5034576;28;20192;-58
2023/03/03 00:43:26;;;;;;;3.45;3.10;;;25.50;51.40;;;;;;5043507;28;20298;-57
2023/03/03 00:45:58;;;;;;;4.65;3.17;;;25.50;51.40;;;;;;5044554;28;20200;-59
2023/03/03 00:48:30;;;;;;;4.65;2.90;;;25.50;51.40;;;;;;5034885;28;20530;-59
2023/03/03 00:51:02;;;;;;;3.72;3.17;;;25.60;51.40;;;;;;5034542;28;20236;-60
2023/03/03 00:53:35;;;;;;;5.47;3.17;;;25.60;51.40;;;;;;5037079;28;20286;-60
2023/03/03 00:56:05;;;;;;;4.68;3.20;;;25.60;51.30;;;;;;5037965;28;20199;-60
2023/03/03 00:58:36;;;;;;;5.10;3.42;;;25.60;51.30;;;;;;5038919;28;20223;-60
2023/03/03 01:01:07;;;;;;;4.63;3.33;;;25.60;51.20;;;;;;5034010;28;20282;-59
2023/03/03 01:03:37;;;;;;;3.60;3.00;;;25.60;51.20;;;;;;5053303;28;20227;-59
2023/03/03 01:06:08;;;;;;;3.03;2.75;;;25.70;51.20;;;;;;5050983;28;20678;-60
2023/03/03 01:08:41;;;;;;;5.18;3.35;;;25.70;51.20;;;;;;5054492;28;20479;-59
2023/03/03 01:11:15;;;;;;;4.03;3.00;;;25.70;51.10;;;;;;5055325;28;20199;-57
2023/03/03 01:13:49;;;;;;;3.95;2.95;;;25.80;51.20;;;;;;5054112;28;20622;-57
2023/03/03 01:16:20;;;;;;;4.43;2.85;;;25.80;51.10;;;;;;5054281;28;20249;-60
2023/03/03 01:18:50;;;;;;;4.25;2.95;;;25.80;51.10;;;;;;5053341;28;20249;-59
2023/03/03 01:21:21;;;;;;;3.78;2.72;;;25.80;51.00;;;;;;5053379;28;20200;-59
2023/03/03 01:23:53;;;;;;;4.00;3.00;;;25.80;51.00;;;;;;5033850;28;20220;-58
2023/03/03 01:26:24;;;;;;;5.65;3.55;;;25.80;51.00;;;;;;5046995;28;20199;-60
2023/03/03 01:28:55;;;;;;;5.57;3.08;;;25.80;51.00;;;;;;5033265;28;20270;-59
2023/03/03 01:31:25;;;;;;;4.60;3.30;;;25.80;51.00;;;;;;5033794;28;20204;-57
2023/03/03 01:33:56;;;;;;;6.15;3.17;;;25.80;51.00;;;;;;5033724;28;20220;-60
2023/03/03 01:36:27;;;;;;;4.43;2.97;;;25.90;51.00;;;;;;5033249;28;20482;-60
2023/03/03 01:39:00;;;;;;;5.03;3.33;;;25.90;51.00;;;;;;5037564;28;20605;-60
2023/03/03 01:41:32;;;;;;;4.00;3.40;;;25.90;51.00;;;;;;5048625;28;20195;-58
2023/03/03 01:44:03;;;;;;;4.53;3.15;;;25.90;51.00;;;;;;5033547;28;20274;-59
2023/03/03 01:46:49;;;;;;;3.50;2.85;;;25.90;51.00;;;;;;5048341;28;20246;-59
2023/03/03 01:49:23;;;;;;;4.15;3.05;;;26.00;51.00;;;;;;5044722;28;20233;-60
2023/03/03 01:51:56;;;;;;;3.13;2.78;;;26.00;50.90;;;;;;5033351;28;20207;-58
2023/03/03 01:54:35;;;;;;;5.32;3.28;;;26.00;50.90;;;;;;5033724;28;20255;-60
2023/03/03 01:57:10;;;;;;;4.82;3.10;;;26.00;50.80;;;;;;5042809;28;20226;-59
2023/03/03 01:59:44;;;;;;;3.58;3.08;;;26.00;50.80;;;;;;5033472;28;20462;-59
2023/03/03 02:02:15;;;;;;;4.00;3.05;;;26.10;50.80;;;;;;5041029;28;20614;-60
2023/03/03 02:04:45;;;;;;;3.92;3.17;;;26.10;50.80;;;;;;5052621;28;20231;-60
2023/03/03 02:07:18;;;;;;;3.97;3.10;;;26.10;50.90;;;;;;5033110;28;20656;-60
2023/03/03 02:09:56;;;;;;;4.88;3.28;;;26.10;50.90;;;;;;5032996;28;20727;-60
2023/03/03 02:12:33;;;;;;;5.38;2.80;;;26.10;50.90;;;;;;5033395;28;20195;-58
2023/03/03 02:15:10;;;;;;;3.95;3.30;;;26.10;50.90;;;;;;5032955;28;20204;-60
2023/03/03 02:17:40;;;;;;;3.25;2.88;;;26.10;50.80;;;;;;5036928;28;20206;-60
2023/03/03 02:20:17;;;;;;;3.45;3.00;;;26.20;50.90;;;;;;5052734;28;20196;-60
2023/03/03 02:22:54;;;;;;;2.78;2.58;;;26.20;50.90;;;;;;5052650;28;20603;-61
2023/03/03 02:25:36;;;;;;;3.42;2.88;;;26.20;50.80;;;;;;5052716;28;20223;-60
2023/03/03 02:28:08;;;;;;;3.60;3.13;;;26.20;50.70;;;;;;5052634;28;20192;-59
2023/03/03 02:30:41;;;;;;;3.70;2.88;;;26.20;50.70;;;;;;5052887;28;20245;-60
2023/03/03 02:33:11;;;;;;;3.95;2.80;;;26.20;50.70;;;;;;5052378;28;20227;-61
2023/03/03 02:35:43;;;;;;;3.80;2.95;;;26.20;50.70;;;;;;5052631;28;20263;-60
2023/03/03 02:38:23;;;;;;;4.13;2.95;;;26.20;50.60;;;;;;5046069;28;20200;-61
2023/03/03 02:41:04;;;;;;;3.70;2.90;;;26.20;50.60;;;;;;5042180;28;20206;-60
2023/03/03 02:43:50;;;;;;;3.67;3.03;;;26.20;50.50;;;;;;5032518;28;20216;-57
2023/03/03 02:46:20;;;;;;;3.53;2.63;;;26.20;50.50;;;;;;5032505;28;20227;-60
2023/03/03 02:48:51;;;;;;;3.33;3.03;;;26.20;50.50;;;;;;5030604;28;20196;-58
2023/03/03 02:51:21;;;;;;;2.70;2.45;;;26.20;50.50;;;;;;5044008;28;20212;-60
2023/03/03 02:53:52;;;;;;;4.90;3.35;;;26.30;50.60;;;;;;5051986;28;20273;-56
2023/03/03 02:56:23;;;;;;;3.17;2.88;;;26.30;50.60;;;;;;5052318;28;20265;-58
2023/03/03 02:58:56;;;;;;;3.20;2.90;;;26.30;50.60;;;;;;5041440;28;20257;-60
2023/03/03 03:01:26;;;;;;;3.20;2.78;;;26.30;50.60;;;;;;5051613;28;20245;-55
2023/03/03 03:03:57;;;;;;;3.42;3.10;;;26.30;50.60;;;;;;5032903;28;20274;-60
2023/03/03 03:06:27;;;;;;;2.95;2.67;;;26.30;50.50;;;;;;5032076;28;20228;-58
2023/03/03 03:08:58;;;;;;;3.13;2.67;;;26.30;50.50;;;;;;5032401;28;20211;-58
2023/03/03 03:11:29;;;;;;;3.33;2.97;;;26.30;50.50;;;;;;5032586;28;20192;-60
2023/03/03 03:14:02;;;;;;;3.95;2.83;;;26.30;50.40;;;;;;5032141;28;20778;-57
2023/03/03 03:16:32;;;;;;;4.97;3.42;;;26.30;50.30;;;;;;5032134;28;20203;-52
2023/03/03 03:19:03;;;;;;;9.05;4.50;;;26.30;50.40;;;;;;5037382;28;20211;-53
2023/03/03 03:21:35;;;;;;;6.13;3.95;;;26.30;50.90;;;;;;5031446;28;20207;-62
2023/03/03 03:24:05;;;;;;;9.32;3.70;;;26.30;51.40;;;;;;5034758;28;20285;-59
2023/03/03 03:26:36;;;;;;;6.60;3.55;;;26.20;51.40;;;;;;5051470;28;20223;-60
2023/03/03 03:29:09;;;;;;;6.32;3.45;;;26.20;51.40;;;;;;5051685;28;20245;-62
2023/03/03 03:31:39;;;;;;;4.25;3.10;;;26.20;51.40;;;;;;5051757;28;20608;-60
2023/03/03 03:34:10;;;;;;;6.60;3.67;;;26.20;51.40;;;;;;5051544;28;20219;-61
2023/03/03 03:36:41;;;;;;;5.35;3.33;;;26.20;51.60;;;;;;5051805;28;20601;-60
2023/03/03 03:39:12;;;;;;;7.07;3.78;;;26.20;51.70;;;;;;5044764;28;20207;-59
2023/03/03 03:41:43;;;;;;;5.95;3.67;;;26.20;51.60;;;;;;5047907;28;20714;-59
2023/03/03 03:44:15;;;;;;;4.55;3.35;;;26.20;51.70;;;;;;5051413;28;20223;-60
2023/03/03 03:46:46;;;;;;;7.07;3.50;;;26.20;51.70;;;;;;5039785;28;20228;-59
2023/03/03 03:49:16;;;;;;;5.95;3.53;;;26.30;51.80;;;;;;5031224;28;20230;-60
2023/03/03 03:51:47;;;;;;;4.97;3.50;;;26.30;51.70;;;;;;5031049;28;20208;-60
2023/03/03 03:54:17;;;;;;;5.03;3.10;;;26.30;51.70;;;;;;5030903;28;20223;-59
2023/03/03 03:56:48;;;;;;;3.78;2.80;;;26.30;51.70;;;;;;5040707;28;20211;-59
2023/03/03 03:59:20;;;;;;;4.07;2.97;;;26.30;51.60;;;;;;5039014;28;20570;-59
2023/03/03 04:01:51;;;;;;;4.68;3.55;;;26.30;51.60;;;;;;5031073;28;20510;-59
2023/03/03 04:04:22;;;;;;;4.68;3.15;;;26.40;51.60;;;;;;5031227;28;20688;-59
2023/03/03 04:06:52;;;;;;;4.68;3.50;;;26.40;51.50;;;;;;5031120;28;20277;-59
2023/03/03 04:09:23;;;;;;;3.92;2.90;;;26.40;51.50;;;;;;5031306;28;20200;-59
2023/03/03 04:11:53;;;;;;;3.10;2.80;;;26.40;51.40;;;;;;5031943;28;20262;-59
2023/03/03 04:14:26;;;;;;;4.35;3.38;;;26.40;51.40;;;;;;5031433;28;20699;-59
2023/03/03 04:16:56;;;;;;;4.20;3.30;;;26.40;51.30;;;;;;5038878;28;20187;-59
2023/03/03 04:19:27;;;;;;;5.15;3.05;;;26.40;51.30;;;;;;5051262;28;20659;-60
2023/03/03 04:21:58;;;;;;;5.25;3.15;;;26.40;51.30;;;;;;5051246;28;20192;-59
2023/03/03 04:24:28;;;;;;;3.78;3.00;;;26.40;51.30;;;;;;5050791;28;20691;-59
2023/03/03 04:26:59;;;;;;;5.18;3.03;;;26.40;51.20;;;;;;5050501;28;20231;-59
2023/03/03 04:29:32;;;;;;;4.70;3.13;;;26.40;51.20;;;;;;5038631;28;20261;-59
2023/03/03 04:32:02;;;;;;;3.33;2.95;;;26.40;51.20;;;;;;5051306;28;20203;-59
2023/03/03 04:34:33;;;;;;;4.60;2.95;;;26.40;51.20;;;;;;5050648;28;20219;-59
2023/03/03 04:37:04;;;;;;;3.55;2.88;;;26.40;51.20;;;;;;5050748;28;20200;-60
2023/03/03 04:39:34;;;;;;;2.78;2.33;;;26.40;51.10;;;;;;5038203;28;20197;-59
2023/03/03 04:42:05;;;;;;;3.17;2.70;;;26.40;51.10;;;;;;5030787;28;20196;-56
2023/03/03 04:44:37;;;;;;;3.70;2.85;;;26.40;51.20;;;;;;5031068;28;20216;-57
2023/03/03 04:47:08;;;;;;;5.32;2.90;;;26.40;51.20;;;;;;5031111;28;20231;-60
2023/03/03 04:49:39;;;;;;;5.07;3.30;;;26.40;51.20;;;;;;5033378;28;20196;-60
2023/03/03 04:52:09;;;;;;;3.70;2.92;;;26.40;51.30;;;;;;5050797;28;20272;-60
2023/03/03 04:54:40;;;;;;;4.43;2.97;;;26.50;51.40;;;;;;5050710;28;20269;-62
2023/03/03 04:57:11;;;;;;;3.67;2.70;;;26.50;51.40;;;;;;5047645;28;20718;-61
2023/03/03 04:59:43;;;;;;;3.80;2.90;;;26.40;51.30;;;;;;5048564;28;20207;-61
2023/03/03 05:02:14;;;;;;;3.65;2.92;;;26.40;51.40;;;;;;5050766;28;20318;-61
2023/03/03 05:04:44;;;;;;;4.03;3.17;;;26.50;51.40;;;;;;5050066;28;20368;-61
2023/03/03 05:07:16;;;;;;;5.60;3.10;;;26.50;51.50;;;;;;5050552;28;20226;-62
2023/03/03 05:09:47;;;;;;;4.88;3.47;;;26.50;51.60;;;;;;5046914;28;20653;-61
2023/03/03 05:12:17;;;;;;;5.20;3.20;;;26.50;51.60;;;;;;5034387;28;20243;-61
2023/03/03 05:14:50;;;;;;;5.22;3.22;;;26.40;51.50;;;;;;5034104;28;20307;-61
2023/03/03 05:17:20;;;;;;;4.22;3.10;;;26.50;51.60;;;;;;5034286;28;20227;-61
2023/03/03 05:19:51;;;;;;;4.07;2.85;;;26.40;51.50;;;;;;5048687;28;20207;-60
2023/03/03 05:22:22;;;;;;;4.70;3.05;;;26.40;51.90;;;;;;5042603;28;20204;-61
2023/03/03 05:24:52;;;;;;;4.30;3.47;;;26.40;51.50;;;;;;5034625;28;20274;-61
2023/03/03 05:27:23;;;;;;;3.38;2.78;;;26.40;51.50;;;;;;5053199;28;20321;-60
2023/03/03 05:29:55;;;;;;;5.32;2.90;;;26.40;51.50;;;;;;5045235;28;20196;-60
2023/03/03 05:32:26;;;;;;;5.20;2.90;;;26.40;51.50;;;;;;5044995;28;20195;-60
2023/03/03 05:34:56;;;;;;;4.72;2.92;;;26.40;51.50;;;;;;5033471;28;20285;-61
2023/03/03 05:37:27;;;;;;;3.67;2.67;;;26.40;51.40;;;;;;5033541;28;20258;-60
2023/03/03 05:39:58;;;;;;;3.22;2.90;;;26.40;51.40;;;;;;5037153;28;20238;-61
2023/03/03 05:42:28;;;;;;;4.40;2.85;;;26.40;51.50;;;;;;5033561;28;20196;-61
2023/03/03 05:45:01;;;;;;;3.10;2.88;;;26.40;51.40;;;;;;5035328;28;20204;-61
2023/03/03 05:47:32;;;;;;;3.35;3.00;;;26.40;51.40;;;;;;5033065;28;20204;-61
2023/03/03 05:50:02;;;;;;;3.65;2.78;;;26.40;51.50;;;;;;5033323;28;20239;-59
2023/03/03 05:52:33;;;;;;;3.38;2.95;;;26.40;51.50;;;;;;5051280;28;20620;-61
2023/03/03 05:55:03;;;;;;;4.55;2.90;;;26.40;51.50;;;;;;5053128;28;20203;-60
2023/03/03 05:57:34;;;;;;;3.85;2.90;;;26.30;51.50;;;;;;5052988;28;20651;-61
2023/03/03 06:00:08;;;;;;;3.65;3.20;;;26.40;51.50;;;;;;5034297;28;20223;-61
2023/03/03 06:02:39;;;;;;;3.30;2.75;;;26.30;51.50;;;;;;5032552;28;20604;-61
2023/03/03 06:05:10;;;;;;;3.20;2.90;;;26.30;51.50;;;;;;5032489;28;20208;-59
2023/03/03 06:07:41;;;;;;;3.38;2.58;;;26.30;51.50;;;;;;5042301;28;20203;-60
2023/03/03 06:10:12;;;;;;;3.78;2.83;;;26.30;51.50;;;;;;5053230;28;20200;-61
2023/03/03 06:12:43;;;;;;;4.95;2.67;;;26.30;51.40;;;;;;5050105;28;20660;-61
2023/03/03 06:15:16;;;;;;;2.80;2.60;;;26.30;51.40;;;;;;5032390;28;20268;-60
2023/03/03 06:17:47;;;;;;;3.55;3.00;;;26.30;51.40;;;;;;5046874;28;20199;-61
2023/03/03 06:20:19;;;;;;;3.85;2.90;;;26.30;51.40;;;;;;5033197;28;20258;-60
2023/03/03 06:22:50;;;;;;;4.53;3.00;;;26.30;51.40;;;;;;5031708;28;20656;-60
2023/03/03 06:25:20;;;;;;;3.50;2.90;;;26.30;51.50;;;;;;5032657;28;20208;-61
2023/03/03 06:27:51;;;;;;;3.58;2.85;;;26.30;51.50;;;;;;5052605;28;20280;-60
2023/03/03 06:30:25;;;;;;;3.75;3.08;;;26.30;51.50;;;;;;5032688;28;20200;-60
2023/03/03 06:32:56;;;;;;;4.45;3.00;;;26.30;51.50;;;;;;5032551;28;20219;-61
2023/03/03 06:35:26;;;;;;;3.25;2.70;;;26.30;51.50;;;;;;5033440;28;20196;-61
2023/03/03 06:37:57;;;;;;;2.85;2.63;;;26.30;51.50;;;;;;5042375;28;20278;-60
2023/03/03 06:40:28;;;;;;;3.70;2.70;;;26.20;51.50;;;;;;5032115;28;20200;-61
2023/03/03 06:42:58;;;;;;;4.50;3.00;;;26.20;52.10;;;;;;5031930;28;20223;-60
2023/03/03 06:45:31;;;;;;;3.55;3.03;;;26.20;51.50;;;;;;5043492;28;20733;-61
2023/03/03 06:48:01;;;;;;;3.38;3.08;;;26.20;51.50;;;;;;5031989;28;20259;-60
2023/03/03 06:50:32;;;;;;;4.07;3.15;;;26.20;51.50;;;;;;5031816;28;20628;-60
2023/03/03 06:53:14;;;;;;;3.33;2.72;;;26.20;51.50;;;;;;5034354;28;20278;-60
2023/03/03 06:55:45;;;;;;;3.17;2.88;;;26.20;51.50;;;;;;5032845;28;20220;-62
2023/03/03 06:58:17;;;;;;;4.90;3.13;;;26.20;51.50;;;;;;5039288;28;20203;-60
2023/03/03 07:00:56;;;;;;;3.97;3.15;;;26.20;51.50;;;;;;5032655;28;20262;-57
2023/03/03 07:03:28;;;;;;;3.15;2.80;;;26.20;51.50;;;;;;5031867;28;20220;-59
2023/03/03 07:05:59;;;;;;;4.55;2.80;;;26.20;51.50;;;;;;5042060;28;20215;-59
2023/03/03 07:08:33;;;;;;;2.90;2.60;;;26.20;51.50;;;;;;5052269;28;20672;-60
2023/03/03 07:11:10;;;;;;;3.13;2.78;;;26.20;51.50;;;;;;5052151;28;20245;-59
2023/03/03 07:13:46;;;;;;;4.50;2.95;;;26.20;51.50;;;;;;5052229;28;20219;-60
2023/03/03 07:16:20;;;;;;;3.10;2.80;;;26.20;51.50;;;;;;5051478;28;20203;-60
2023/03/03 07:18:53;;;;;;;2.85;2.55;;;26.10;51.40;;;;;;5051504;28;20276;-60
2023/03/03 07:21:27;;;;;;;4.93;2.88;;;26.10;51.40;;;;;;5051424;28;20259;-60
2023/03/03 07:23:57;;;;;;;4.30;3.13;;;26.10;51.40;;;;;;5031426;28;20265;-60
2023/03/03 07:26:31;;;;;;;3.40;2.75;;;26.10;51.40;;;;;;5039004;28;20224;-60
2023/03/03 07:29:05;;;;;;;4.22;3.03;;;26.10;51.40;;;;;;5032562;28;20261;-60
2023/03/03 07:31:40;;;;;;;3.67;3.08;;;26.10;51.50;;;;;;5032172;28;20196;-60
2023/03/03 07:34:22;;;;;;;3.20;2.78;;;26.10;51.40;;;;;;5033277;28;20211;-59
2023/03/03 07:36:55;;;;;;;3.17;2.88;;;26.00;51.40;;;;;;5031180;28;20202;-60
2023/03/03 07:39:35;;;;;;;3.03;2.67;;;26.10;51.50;;;;;;5034115;28;20195;-60
2023/03/03 07:42:26;;;;;;;3.92;2.47;;;26.00;51.40;;;;;;5035234;28;20203;-60
2023/03/03 07:44:58;;;;;;;4.00;2.78;;;26.00;51.50;;;;;;5037283;28;20265;-60
2023/03/03 07:47:33;;;;;;;3.80;2.50;;;26.00;51.40;;;;;;5030854;28;20228;-60
2023/03/03 07:50:15;;;;;;;3.80;2.80;;;26.00;51.40;;;;;;5049672;28;20273;-60
2023/03/03 07:52:55;;;;;;;2.97;2.60;;;26.00;51.40;;;;;;5050670;28;20195;-59
2023/03/03 07:55:33;;;;;;;4.63;2.65;;;26.00;51.50;;;;;;5050842;28;20199;-60
2023/03/03 07:58:21;;;;;;;3.47;2.70;;;25.90;51.30;;;;;;5049102;28;20257;-60
2023/03/03 08:01:23;;;;;;;3.63;2.92;;;25.90;51.40;;;;;;5031158;28;20204;-60
2023/03/03 08:03:56;;;;;;;2.70;2.50;;;25.90;51.40;;;;;;4992998;28;20301;-60
2023/03/03 08:06:48;;;;;;;3.22;3.03;;;25.90;51.30;;;;;;5031007;28;20224;-60
2023/03/03 08:09:40;;;;;;;3.25;2.60;;;25.90;51.40;;;;;;5026224;28;20196;-60
2023/03/03 08:12:40;;;;;;;3.15;2.88;;;25.90;51.40;;;;;;5031649;28;20722;-59
2023/03/03 08:15:29;;;;;;;3.72;2.90;;;25.90;51.40;;;;;;5031243;28;20207;-60
2023/03/03 08:18:03;;;;;;;2.95;2.55;;;25.80;51.30;;;;;;5031606;28;20200;-60
2023/03/03 08:20:53;;;;;;;2.92;2.60;;;25.80;51.30;;;;;;5031159;28;20407;-60
2023/03/03 08:23:24;;;;;;;3.40;2.60;;;25.80;51.40;;;;;;5030612;28;20286;-62
2023/03/03 08:25:55;;;;;;;3.53;2.97;;;25.80;51.40;;;;;;5032385;28;20203;-63
2023/03/03 08:28:26;;;;;;;3.53;2.50;;;25.80;51.30;;;;;;5045886;28;20222;-60
2023/03/03 08:30:56;;;;;;;4.40;2.63;;;25.80;51.10;;;;;;5030834;28;20546;-61
2023/03/03 08:33:27;;;;;;;4.15;2.85;;;25.80;51.00;;;;;;5045234;28;20223;-61
2023/03/03 08:35:59;;;;;;;5.80;3.38;;;25.70;50.90;;;;;;5030500;28;20250;-61
2023/03/03 08:38:30;;;;;;;5.57;2.80;;;25.70;50.90;;;;;;5034277;28;20203;-60
2023/03/03 08:41:01;;;;;;;3.10;2.38;;;25.70;50.90;;;;;;5034543;28;20250;-60
2023/03/03 08:43:32;;;;;;;4.32;3.10;;;25.70;50.90;;;;;;5031267;28;20282;-61
2023/03/03 08:46:04;;;;;;;3.10;2.70;;;25.70;51.00;;;;;;5032572;28;20285;-61
2023/03/03 08:48:36;;;;;;;5.28;2.95;;;25.70;51.00;;;;;;5034954;28;20710;-62
2023/03/03 08:51:08;;;;;;;4.45;2.80;;;25.70;51.00;;;;;;5034860;28;20204;-59
2023/03/03 08:53:39;;;;;;;4.07;2.97;;;25.60;50.90;;;;;;5034577;28;20282;-60
2023/03/03 08:56:10;;;;;;;3.60;2.70;;;25.60;51.00;;;;;;5038351;28;20246;-60
2023/03/03 08:58:46;;;;;;;4.10;3.05;;;25.60;51.00;;;;;;5045075;28;20208;-60
2023/03/03 09:01:18;;;;;;;3.03;2.63;;;25.60;51.00;;;;;;5034478;28;20199;-59
2023/03/03 09:03:48;;;;;;;2.80;2.38;;;25.60;51.00;;;;;;5034035;28;20223;-60
2023/03/03 09:06:21;;;;;;;3.25;2.70;;;25.50;51.00;;;;;;5033932;28;20652;-60
2023/03/03 09:08:51;;;;;;;3.47;2.80;;;25.50;51.00;;;;;;5033608;28;20196;-59
2023/03/03 09:11:27;;;;;;;3.25;2.70;;;25.50;51.00;;;;;;5033572;28;20200;-59
2023/03/03 09:14:04;;;;;;;2.58;2.38;;;25.50;51.00;;;;;;5042138;28;20703;-59
2023/03/03 09:16:39;;;;;;;3.20;2.58;;;25.50;51.00;;;;;;5053933;28;20221;-59
2023/03/03 09:19:26;;;;;;;3.78;2.60;;;25.50;51.00;;;;;;5048103;28;20203;-60
2023/03/03 09:22:02;;;;;;;3.08;2.78;;;25.50;51.00;;;;;;5053918;28;20261;-59
2023/03/03 09:24:37;;;;;;;3.10;2.67;;;25.50;51.00;;;;;;5041958;28;20220;-59
2023/03/03 09:27:18;;;;;;;3.08;2.78;;;25.50;51.00;;;;;;5045967;28;20272;-59
2023/03/03 09:29:48;;;;;;;2.70;2.50;;;25.50;51.00;;;;;;5035984;28;20218;-60
2023/03/03 09:32:32;;;;;;;3.75;2.70;;;25.50;51.00;;;;;;5033937;28;20246;-59
2023/03/03 09:35:22;;;;;;;3.35;2.75;;;25.40;50.90;;;;;;5033271;28;20303;-60
2023/03/03 09:37:55;;;;;;;2.92;2.60;;;25.40;50.90;;;;;;5033349;28;20247;-60
2023/03/03 09:40:46;;;;;;;2.53;2.33;;;25.40;50.90;;;;;;5033868;28;20710;-60
2023/03/03 09:43:23;;;;;;;3.75;2.88;;;25.40;50.90;;;;;;5033802;28;20700;-59
2023/03/03 09:46:03;;;;;;;3.05;2.40;;;25.30;50.90;;;;;;5040380;28;20207;-60
2023/03/03 09:48:51;;;;;;;3.42;2.60;;;25.30;50.90;;;;;;5053046;28;20223;-60
2023/03/03 09:51:38;;;;;;;3.65;2.50;;;25.30;50.90;;;;;;5044855;28;20730;-60
2023/03/03 09:54:23;;;;;;;3.92;2.83;;;25.30;50.90;;;;;;5033279;28;20548;-60
2023/03/03 09:57:04;;;;;;;4.28;2.55;;;25.30;50.90;;;;;;5042788;28;20543;-59
2023/03/03 09:59:49;;;;;;;2.63;2.42;;;25.30;51.00;;;;;;5047005;28;20620;-60
2023/03/03 10:02:35;;;;;;;3.60;2.60;;;25.30;50.90;;;;;;5052989;28;20192;-59
2023/03/03 10:05:20;;;;;;;3.25;2.63;;;25.30;50.90;;;;;;5053181;28;20203;-60
2023/03/03 10:08:01;;;;;;;3.25;2.55;;;25.30;50.90;;;;;;5053128;28;20219;-59
2023/03/03 10:10:52;;;;;;;3.00;2.80;;;25.30;50.90;;;;;;5035294;28;20262;-59
2023/03/03 10:13:37;;;;;;;3.08;2.65;;;25.20;50.80;;;;;;5033315;28;20243;-60
2023/03/03 10:16:35;;;;;;;2.55;2.35;;;25.20;50.80;;;;;;5045657;28;20291;-60
2023/03/03 10:19:11;;;;;;;2.92;2.63;;;25.20;50.80;;;;;;5032596;28;20192;-60
2023/03/03 10:21:49;;;;;;;3.15;2.90;;;25.20;50.80;;;;;;5032904;28;20282;-59
2023/03/03 10:24:29;;;;;;;2.95;2.75;;;25.10;50.80;;;;;;5032466;28;20227;-60
2023/03/03 10:27:15;;;;;;;3.10;2.83;;;25.10;50.80;;;;;;5043136;28;21125;-60
2023/03/03 10:29:58;;;;;;;2.88;2.60;;;25.10;50.90;;;;;;5045638;28;20208;-60
2023/03/03 10:32:39;;;;;;;2.83;2.53;;;25.10;51.00;;;;;;5033058;28;20250;-60
2023/03/03 10:35:37;;;;;;;3.22;2.60;;;25.10;51.00;;;;;;5032593;28;20192;-60
2023/03/03 10:38:19;;;;;;;2.60;2.40;;;25.10;50.90;;;;;;5032719;28;20251;-60
2023/03/03 10:40:57;;;;;;;3.03;2.70;;;25.10;51.00;;;;;;5052004;28;20253;-60
2023/03/03 10:43:44;;;;;;;3.08;2.67;;;25.10;50.90;;;;;;5052101;28;20215;-60
2023/03/03 10:46:25;;;;;;;3.80;2.70;;;25.10;51.00;;;;;;5052676;28;20249;-60
2023/03/03 10:49:18;;;;;;;2.67;2.38;;;25.10;50.90;;;;;;5052446;28;20223;-60
2023/03/03 10:52:04;;;;;;;3.38;2.53;;;25.10;50.90;;;;;;5021705;28;20200;-59
2023/03/03 10:54:56;;;;;;;3.33;2.55;;;25.10;50.90;;;;;;5032195;28;20250;-60
2023/03/03 10:57:35;;;;;;;2.80;2.60;;;25.00;50.80;;;;;;5046027;28;20260;-60
2023/03/03 11:00:23;;;;;;;3.08;2.75;;;25.00;50.90;;;;;;5049481;28;20203;-60
2023/03/03 11:03:27;;;;;;;2.60;2.20;;;25.00;50.90;;;;;;5051979;28;20245;-60
2023/03/03 11:06:02;;;;;;;2.97;2.70;;;25.00;50.90;;;;;;5051942;28;20199;-60
2023/03/03 11:08:39;;;;;;;2.90;2.60;;;25.00;51.00;;;;;;5048174;28;20226;-60
2023/03/03 11:11:22;;;;;;;2.70;2.50;;;25.00;51.00;;;;;;5036639;28;20196;-60
2023/03/03 11:13:58;;;;;;;2.97;2.70;;;25.00;51.10;;;;;;5031527;28;20227;-59
2023/03/03 11:16:46;;;;;;;2.70;2.50;;;24.90;51.00;;;;;;5031787;28;20246;-60
2023/03/03 11:19:33;;;;;;;2.80;2.42;;;24.90;51.10;;;;;;5031328;28;20196;-60
2023/03/03 11:22:18;;;;;;;3.17;2.55;;;24.90;51.10;;;;;;5042071;28;20195;-60
2023/03/03 11:24:59;;;;;;;4.13;3.00;;;24.90;51.10;;;;;;5051817;28;20849;-60
2023/03/03 11:28:18;;;;;;;4.13;3.10;;;24.90;51.10;;;;;;5051907;28;20253;-60
2023/03/03 11:31:11;;;;;;;3.00;2.60;;;24.90;51.00;;;;;;4936195;29;20262;-60
2023/03/03 11:33:55;;;;;;;3.03;2.70;;;24.90;51.00;;;;;;5031543;28;20448;-60
2023/03/03 11:36:29;;;;;;;3.85;2.70;;;24.90;51.00;;;;;;5032050;28;20648;-60
2023/03/03 11:39:02;;;;;;;3.83;2.60;;;24.90;51.00;;;;;;5031186;28;20208;-60
2023/03/03 11:41:39;;;;;;;3.45;2.70;;;24.90;51.10;;;;;;5030935;28;20706;-60
2023/03/03 11:44:19;;;;;;;3.03;2.67;;;24.90;51.10;;;;;;5031279;28;20705;-60
2023/03/03 11:46:53;;;;;;;2.47;2.28;;;24.80;51.00;;;;;;5031365;28;20210;-61
2023/03/03 11:49:30;;;;;;;2.75;2.55;;;24.80;51.10;;;;;;5030766;28;20265;-60
2023/03/03 11:52:14;;;;;;;3.55;2.50;;;24.80;51.20;;;;;;5050266;28;20655;-60
2023/03/03 11:54:52;;;;;;;2.97;2.42;;;24.80;51.20;;;;;;5051129;28;20219;-60
2023/03/03 11:57:29;;;;;;;2.83;2.38;;;24.80;51.20;;;;;;5050991;28;20202;-60
2023/03/03 12:00:08;;;;;;;3.03;2.42;;;24.80;51.20;;;;;;5037890;28;20211;-60
2023/03/03 12:03:00;;;;;;;2.92;2.63;;;24.80;51.20;;;;;;5031045;28;20666;-60
2023/03/03 12:05:44;;;;;;;2.83;2.58;;;24.80;51.20;;;;;;5032068;28;20229;-60
2023/03/03 12:08:30;;;;;;;2.85;2.42;;;24.80;51.20;;;;;;5051238;28;20626;-60
2023/03/03 12:11:09;;;;;;;2.60;2.40;;;24.80;51.20;;;;;;5051479;28;20195;-60
2023/03/03 12:13:50;;;;;;;2.45;2.25;;;24.80;51.20;;;;;;5035302;28;20222;-59
2023/03/03 12:16:31;;;;;;;2.42;2.22;;;24.70;51.20;;;;;;5047411;28;20253;-60
2023/03/03 12:19:16;;;;;;;3.08;2.80;;;24.70;51.20;;;;;;5050830;28;20200;-60
2023/03/03 12:22:20;;;;;;;3.10;2.72;;;24.70;51.20;;;;;;5054580;28;20202;-60
2023/03/03 12:25:23;;;;;;;2.88;2.58;;;24.70;51.20;;;;;;5038335;28;20253;-59
2023/03/03 12:27:59;;;;;;;3.08;2.72;;;24.70;51.20;;;;;;5053537;28;20690;-60
2023/03/03 12:30:50;;;;;;;2.80;2.50;;;24.70;51.30;;;;;;5050174;28;20208;-60
2023/03/03 12:33:31;;;;;;;2.72;2.50;;;24.70;51.30;;;;;;5034580;28;20273;-60
2023/03/03 12:36:15;;;;;;;3.15;2.58;;;24.70;51.30;;;;;;5053749;28;20207;-60
2023/03/03 12:38:55;;;;;;;2.67;2.47;;;24.70;51.40;;;;;;5055029;28;20638;-60
2023/03/03 12:41:34;;;;;;;2.55;2.35;;;24.70;51.40;;;;;;5053556;28;20199;-60
2023/03/03 12:44:09;;;;;;;2.95;2.65;;;24.70;51.40;;;;;;5054814;28;20225;-60
2023/03/03 12:46:48;;;;;;;2.83;2.50;;;24.70;51.30;;;;;;5049588;28;20261;-60
2023/03/03 12:49:18;;;;;;;2.65;2.40;;;24.60;51.30;;;;;;5054906;28;20231;-60
2023/03/03 12:52:02;;;;;;;3.13;2.42;;;24.60;51.30;;;;;;5054508;28;20207;-60
2023/03/03 12:55:00;;;;;;;2.92;2.65;;;24.60;51.40;;;;;;5054350;28;20223;-59
2023/03/03 12:57:39;;;;;;;2.97;2.50;;;24.60;51.40;;;;;;5039436;28;20207;-60
2023/03/03 13:00:34;;;;;;;2.38;2.22;;;24.60;51.40;;;;;;5034126;28;20238;-60
2023/03/03 13:03:13;;;;;;;2.97;2.75;;;24.60;51.30;;;;;;5033970;28;20223;-60
2023/03/03 13:05:57;;;;;;;2.72;2.40;;;24.50;51.30;;;;;;5041989;28;20249;-60
2023/03/03 13:08:56;;;;;;;2.22;2.13;;;24.50;51.40;;;;;;5053946;28;20235;-59
2023/03/03 13:11:54;;;;;;;2.63;2.42;;;24.50;51.40;;;;;;5052660;28;20196;-60
2023/03/03 13:14:33;;;;;;;2.95;2.65;;;24.50;51.40;;;;;;5053302;28;20273;-60
2023/03/03 13:17:21;;;;;;;2.45;2.25;;;24.50;51.40;;;;;;5053630;28;20252;-59
2023/03/03 13:19:58;;;;;;;2.60;2.40;;;24.50;51.40;;;;;;5047892;28;20253;-60
2023/03/03 13:22:39;;;;;;;2.60;2.40;;;24.50;51.40;;;;;;5054041;28;20195;-59
2023/03/03 13:25:31;;;;;;;2.38;2.17;;;24.50;51.40;;;;;;5052810;28;20570;-59
2023/03/03 13:28:08;;;;;;;2.88;2.67;;;24.50;51.40;;;;;;5031871;28;20482;-60
2023/03/03 13:30:44;;;;;;;2.67;2.47;;;24.50;51.40;;;;;;5033231;28;20258;-60
2023/03/03 13:33:22;;;;;;;2.35;2.20;;;24.50;51.40;;;;;;5033419;28;20319;-60
2023/03/03 13:35:55;;;;;;;2.80;2.60;;;24.40;51.50;;;;;;5033481;28;20200;-61